sensor_id;sensor_type;location;lat;lon;timestamp;temperature;humidity
39621;DHT22;25309;48.686;9.170;2024-03-02T00:01:37;6.40;99.90
39621;DHT22;25309;48.686;9.170;2024-03-02T00:04:05;6.40;99.90
39621;DHT22;25309;48.686;9.170;2024-03-02T00:06:34;6.40;99.90
39621;DHT22;25309;48.686;9.170;2024-03-02T00:09:01;6.40;99.90
39621;DHT22;25309;48.686;9.170;2024-03-02T00:11:29;6.40;99.90
39621;DHT22;25309;48.686;9.170;2024-03-02T00:13:56;6.40;99.90
39621;DHT22;25309;48.686;9.170;2024-03-02T00:16:23;6.40;99.90
39621;DHT22;25309;48.686;9.170;2024-03-02T00:18:52;6.40;99.90
39621;DHT22;25309;48.686;9.170;2024-03-02T00:21:19;6.40;99.90
39621;DHT22;25309;48.686;9.170;2024-03-02T00:23:49;6.40;99.90
39621;DHT22;25309;48.686;9.170;2024-03-02T00:26:18;6.50;99.90
39621;DHT22;25309;48.686;9.170;2024-03-02T00:28:46;6.40;99.90
39621;DHT22;25309;48.686;9.170;2024-03-02T00:31:13;6.40;99.90
39621;DHT22;25309;48.686;9.170;2024-03-02T00:33:42;6.40;99.90
39621;DHT22;25309;48.686;9.170;2024-03-02T00:36:12;6.40;99.90
39621;DHT22;25309;48.686;9.170;2024-03-02T00:38:46;6.40;99.90
39621;DHT22;25309;48.686;9.170;2024-03-02T00:41:21;6.40;99.90
39621;DHT22;25309;48.686;9.170;2024-03-02T00:43:57;6.30;99.90
39621;DHT22;25309;48.686;9.170;2024-03-02T00:46:25;6.30;99.90
39621;DHT22;25309;48.686;9.170;2024-03-02T00:48:54;6.30;99.90
39621;DHT22;25309;48.686;9.170;2024-03-02T00:51:24;6.30;99.90
39621;DHT22;25309;48.686;9.170;2024-03-02T00:53:52;6.30;99.90
39621;DHT22;25309;48.686;9.170;2024-03-02T00:56:23;6.30;99.90
39621;DHT22;25309;48.686;9.170;2024-03-02T00:58:50;6.40;99.90
39621;DHT22;25309;48.686;9.170;2024-03-02T01:01:17;6.40;99.90
39621;DHT22;25309;48.686;9.170;2024-03-02T01:03:45;6.40;99.90
39621;DHT22;25309;48.686;9.170;2024-03-02T01:06:12;6.40;99.90
39621;DHT22;25309;48.686;9.170;2024-03-02T01:08:40;6.30;99.90
39621;DHT22;25309;48.686;9.170;2024-03-02T01:11:07;6.30;99.90
39621;DHT22;25309;48.686;9.170;2024-03-02T01:13:34;6.30;99.90
39621;DHT22;25309;48.686;9.170;2024-03-02T01:16:02;6.30;99.90
39621;DHT22;25309;48.686;9.170;2024-03-02T01:18:29;6.30;99.90
39621;DHT22;25309;48.686;9.170;2024-03-02T01:20:56;6.30;99.90
39621;DHT22;25309;48.686;9.170;2024-03-02T01:23:23;6.20;99.90
39621;DHT22;25309;48.686;9.170;2024-03-02T01:25:52;6.20;99.90
39621;DHT22;25309;48.686;9.170;2024-03-02T01:28:19;6.20;99.90
39621;DHT22;25309;48.686;9.170;2024-03-02T01:30:48;6.20;99.90
39621;DHT22;25309;48.686;9.170;2024-03-02T01:33:15;6.20;99.90
39621;DHT22;25309;48.686;9.170;2024-03-02T01:35:42;6.20;99.90
39621;DHT22;25309;48.686;9.170;2024-03-02T01:38:10;6.20;99.90
39621;DHT22;25309;48.686;9.170;2024-03-02T01:40:37;6.10;99.90
39621;DHT22;25309;48.686;9.170;2024-03-02T01:43:06;6.10;99.90
39621;DHT22;25309;48.686;9.170;2024-03-02T01:45:34;6.00;99.90
39621;DHT22;25309;48.686;9.170;2024-03-02T01:48:03;6.00;99.90
39621;DHT22;25309;48.686;9.170;2024-03-02T01:50:32;5.90;99.90
39621;DHT22;25309;48.686;9.170;2024-03-02T01:53:00;6.00;99.90
39621;DHT22;25309;48.686;9.170;2024-03-02T01:55:27;5.90;99.90
39621;DHT22;25309;48.686;9.170;2024-03-02T01:57:57;6.00;99.90
39621;DHT22;25309;48.686;9.170;2024-03-02T02:00:26;5.90;99.90
39621;DHT22;25309;48.686;9.170;2024-03-02T02:02:54;5.90;99.90
39621;DHT22;25309;48.686;9.170;2024-03-02T02:05:22;5.90;99.90
39621;DHT22;25309;48.686;9.170;2024-03-02T02:07:49;5.90;99.90
39621;DHT22;25309;48.686;9.170;2024-03-02T02:10:17;5.90;99.90
39621;DHT22;25309;48.686;9.170;2024-03-02T02:12:44;5.90;99.90
39621;DHT22;25309;48.686;9.170;2024-03-02T02:15:28;5.90;99.90
39621;DHT22;25309;48.686;9.170;2024-03-02T02:17:57;5.80;99.90
39621;DHT22;25309;48.686;9.170;2024-03-02T02:20:25;5.80;99.90
39621;DHT22;25309;48.686;9.170;2024-03-02T02:23:00;5.80;99.90
39621;DHT22;25309;48.686;9.170;2024-03-02T02:25:28;5.80;99.90
39621;DHT22;25309;48.686;9.170;2024-03-02T02:27:55;5.70;99.90
39621;DHT22;25309;48.686;9.170;2024-03-02T02:30:24;5.70;99.90
39621;DHT22;25309;48.686;9.170;2024-03-02T02:32:51;5.60;99.90
39621;DHT22;25309;48.686;9.170;2024-03-02T02:35:18;5.60;99.90
39621;DHT22;25309;48.686;9.170;2024-03-02T02:37:46;5.60;99.90
39621;DHT22;25309;48.686;9.170;2024-03-02T02:40:15;5.50;99.90
39621;DHT22;25309;48.686;9.170;2024-03-02T02:42:42;5.60;99.90
39621;DHT22;25309;48.686;9.170;2024-03-02T02:45:09;5.60;99.90
39621;DHT22;25309;48.686;9.170;2024-03-02T02:47:38;5.60;99.90
39621;DHT22;25309;48.686;9.170;2024-03-02T02:50:07;5.60;99.90
39621;DHT22;25309;48.686;9.170;2024-03-02T02:52:34;5.60;99.90
39621;DHT22;25309;48.686;9.170;2024-03-02T02:55:03;5.50;99.90
39621;DHT22;25309;48.686;9.170;2024-03-02T02:57:33;5.50;99.90
39621;DHT22;25309;48.686;9.170;2024-03-02T03:00:06;5.50;99.90
39621;DHT22;25309;48.686;9.170;2024-03-02T03:02:37;5.50;99.90
39621;DHT22;25309;48.686;9.170;2024-03-02T03:05:05;5.50;99.90
39621;DHT22;25309;48.686;9.170;2024-03-02T03:07:32;5.40;99.90
39621;DHT22;25309;48.686;9.170;2024-03-02T03:10:01;5.40;99.90
39621;DHT22;25309;48.686;9.170;2024-03-02T03:12:28;5.30;99.90
39621;DHT22;25309;48.686;9.170;2024-03-02T03:14:56;5.30;99.90
39621;DHT22;25309;48.686;9.170;2024-03-02T03:17:24;5.30;99.90
39621;DHT22;25309;48.686;9.170;2024-03-02T03:19:51;5.30;99.90
39621;DHT22;25309;48.686;9.170;2024-03-02T03:22:18;5.30;99.90
39621;DHT22;25309;48.686;9.170;2024-03-02T03:24:45;5.20;99.90
39621;DHT22;25309;48.686;9.170;2024-03-02T03:27:12;5.20;99.90
39621;DHT22;25309;48.686;9.170;2024-03-02T03:29:39;5.20;99.90
39621;DHT22;25309;48.686;9.170;2024-03-02T03:32:07;5.20;99.90
39621;DHT22;25309;48.686;9.170;2024-03-02T03:34:35;5.20;99.90
39621;DHT22;25309;48.686;9.170;2024-03-02T03:37:02;5.10;99.90
39621;DHT22;25309;48.686;9.170;2024-03-02T03:39:29;5.10;99.90
39621;DHT22;25309;48.686;9.170;2024-03-02T03:41:56;5.10;99.90
39621;DHT22;25309;48.686;9.170;2024-03-02T03:44:23;5.10;99.90
39621;DHT22;25309;48.686;9.170;2024-03-02T03:46:50;5.10;99.90
39621;DHT22;25309;48.686;9.170;2024-03-02T03:49:19;5.00;99.90
39621;DHT22;25309;48.686;9.170;2024-03-02T03:51:46;5.00;99.90
39621;DHT22;25309;48.686;9.170;2024-03-02T03:54:13;5.00;99.90
39621;DHT22;25309;48.686;9.170;2024-03-02T03:56:40;4.90;99.90
39621;DHT22;25309;48.686;9.170;2024-03-02T03:59:07;4.90;99.90
39621;DHT22;25309;48.686;9.170;2024-03-02T04:01:34;4.90;99.90
39621;DHT22;25309;48.686;9.170;2024-03-02T04:04:01;4.90;99.90
39621;DHT22;25309;48.686;9.170;2024-03-02T04:06:31;4.90;99.90
39621;DHT22;25309;48.686;9.170;2024-03-02T04:08:59;4.80;99.90
39621;DHT22;25309;48.686;9.170;2024-03-02T04:11:26;4.90;99.90
39621;DHT22;25309;48.686;9.170;2024-03-02T04:13:53;4.90;99.90
39621;DHT22;25309;48.686;9.170;2024-03-02T04:16:23;4.90;99.90
39621;DHT22;25309;48.686;9.170;2024-03-02T04:18:50;4.90;99.90
39621;DHT22;25309;48.686;9.170;2024-03-02T04:21:17;4.90;99.90
39621;DHT22;25309;48.686;9.170;2024-03-02T04:23:46;5.00;99.90
39621;DHT22;25309;48.686;9.170;2024-03-02T04:26:13;4.90;99.90
39621;DHT22;25309;48.686;9.170;2024-03-02T04:28:41;4.90;99.90
39621;DHT22;25309;48.686;9.170;2024-03-02T04:31:08;4.90;99.90
39621;DHT22;25309;48.686;9.170;2024-03-02T04:33:35;4.90;99.90
39621;DHT22;25309;48.686;9.170;2024-03-02T04:36:02;4.90;99.90
39621;DHT22;25309;48.686;9.170;2024-03-02T04:38:29;4.80;99.90
39621;DHT22;25309;48.686;9.170;2024-03-02T04:40:58;4.90;99.90
39621;DHT22;25309;48.686;9.170;2024-03-02T04:43:25;4.90;99.90
39621;DHT22;25309;48.686;9.170;2024-03-02T04:45:52;4.80;99.90
39621;DHT22;25309;48.686;9.170;2024-03-02T04:48:19;4.80;99.90
39621;DHT22;25309;48.686;9.170;2024-03-02T04:50:46;4.80;99.90
39621;DHT22;25309;48.686;9.170;2024-03-02T04:53:13;4.80;99.90
39621;DHT22;25309;48.686;9.170;2024-03-02T04:55:40;4.80;99.90
39621;DHT22;25309;48.686;9.170;2024-03-02T04:58:08;4.80;99.90
39621;DHT22;25309;48.686;9.170;2024-03-02T05:00:35;4.80;99.90
39621;DHT22;25309;48.686;9.170;2024-03-02T05:03:03;4.80;99.90
39621;DHT22;25309;48.686;9.170;2024-03-02T05:05:30;4.70;99.90
39621;DHT22;25309;48.686;9.170;2024-03-02T05:07:57;4.70;99.90
39621;DHT22;25309;48.686;9.170;2024-03-02T05:10:24;4.70;99.90
39621;DHT22;25309;48.686;9.170;2024-03-02T05:12:51;4.60;99.90
39621;DHT22;25309;48.686;9.170;2024-03-02T05:15:27;4.60;99.90
39621;DHT22;25309;48.686;9.170;2024-03-02T05:17:54;4.60;99.90
39621;DHT22;25309;48.686;9.170;2024-03-02T05:20:23;4.60;99.90
39621;DHT22;25309;48.686;9.170;2024-03-02T05:22:50;4.60;99.90
39621;DHT22;25309;48.686;9.170;2024-03-02T05:25:18;4.50;99.90
39621;DHT22;25309;48.686;9.170;2024-03-02T05:27:45;4.40;99.90
39621;DHT22;25309;48.686;9.170;2024-03-02T05:30:14;4.30;99.90
39621;DHT22;25309;48.686;9.170;2024-03-02T05:32:43;4.30;99.90
39621;DHT22;25309;48.686;9.170;2024-03-02T05:35:10;4.30;99.90
39621;DHT22;25309;48.686;9.170;2024-03-02T05:37:39;4.30;99.90
39621;DHT22;25309;48.686;9.170;2024-03-02T05:40:07;4.30;99.90
39621;DHT22;25309;48.686;9.170;2024-03-02T05:42:35;4.20;99.90
39621;DHT22;25309;48.686;9.170;2024-03-02T05:45:02;4.20;99.90
39621;DHT22;25309;48.686;9.170;2024-03-02T05:47:29;4.20;99.90
39621;DHT22;25309;48.686;9.170;2024-03-02T05:49:58;4.20;99.90
39621;DHT22;25309;48.686;9.170;2024-03-02T05:52:24;4.20;99.90
39621;DHT22;25309;48.686;9.170;2024-03-02T05:54:51;4.20;99.90
39621;DHT22;25309;48.686;9.170;2024-03-02T05:57:18;4.30;99.90
39621;DHT22;25309;48.686;9.170;2024-03-02T06:00:00;4.40;99.90
39621;DHT22;25309;48.686;9.170;2024-03-02T06:02:29;4.40;99.90
39621;DHT22;25309;48.686;9.170;2024-03-02T06:04:57;4.40;99.90
39621;DHT22;25309;48.686;9.170;2024-03-02T06:07:24;4.40;99.90
39621;DHT22;25309;48.686;9.170;2024-03-02T06:09:51;4.30;99.90
39621;DHT22;25309;48.686;9.170;2024-03-02T06:12:19;4.30;99.90
39621;DHT22;25309;48.686;9.170;2024-03-02T06:14:46;4.40;99.90
39621;DHT22;25309;48.686;9.170;2024-03-02T06:17:13;4.40;99.90
39621;DHT22;25309;48.686;9.170;2024-03-02T06:19:40;4.40;99.90
39621;DHT22;25309;48.686;9.170;2024-03-02T06:22:08;4.40;99.90
39621;DHT22;25309;48.686;9.170;2024-03-02T06:24:36;4.40;99.90
39621;DHT22;25309;48.686;9.170;2024-03-02T06:27:05;4.50;99.90
39621;DHT22;25309;48.686;9.170;2024-03-02T06:29:32;4.50;99.90
39621;DHT22;25309;48.686;9.170;2024-03-02T06:31:59;4.60;99.90
39621;DHT22;25309;48.686;9.170;2024-03-02T06:34:26;4.70;99.90
39621;DHT22;25309;48.686;9.170;2024-03-02T06:36:53;4.80;99.90
39621;DHT22;25309;48.686;9.170;2024-03-02T06:39:22;4.80;99.90
39621;DHT22;25309;48.686;9.170;2024-03-02T06:41:49;4.90;99.90
39621;DHT22;25309;48.686;9.170;2024-03-02T06:44:16;5.00;99.90
39621;DHT22;25309;48.686;9.170;2024-03-02T06:46:43;5.10;99.90
39621;DHT22;25309;48.686;9.170;2024-03-02T06:49:10;5.10;99.90
39621;DHT22;25309;48.686;9.170;2024-03-02T06:51:39;5.10;99.90
39621;DHT22;25309;48.686;9.170;2024-03-02T06:54:07;5.20;99.90
39621;DHT22;25309;48.686;9.170;2024-03-02T06:56:36;5.20;99.90
39621;DHT22;25309;48.686;9.170;2024-03-02T06:59:04;5.30;99.90
39621;DHT22;25309;48.686;9.170;2024-03-02T07:01:31;5.40;99.90
39621;DHT22;25309;48.686;9.170;2024-03-02T07:03:58;5.50;99.90
39621;DHT22;25309;48.686;9.170;2024-03-02T07:06:25;5.60;99.90
39621;DHT22;25309;48.686;9.170;2024-03-02T07:08:52;5.70;99.90
39621;DHT22;25309;48.686;9.170;2024-03-02T07:11:19;5.80;99.90
39621;DHT22;25309;48.686;9.170;2024-03-02T07:13:47;5.90;99.90
39621;DHT22;25309;48.686;9.170;2024-03-02T07:16:14;6.00;99.90
39621;DHT22;25309;48.686;9.170;2024-03-02T07:18:59;6.10;99.90
39621;DHT22;25309;48.686;9.170;2024-03-02T07:21:28;6.20;99.90
39621;DHT22;25309;48.686;9.170;2024-03-02T07:23:55;6.30;99.90
39621;DHT22;25309;48.686;9.170;2024-03-02T07:26:22;6.50;99.90
39621;DHT22;25309;48.686;9.170;2024-03-02T07:28:54;6.70;99.90
39621;DHT22;25309;48.686;9.170;2024-03-02T07:31:21;6.90;99.90
39621;DHT22;25309;48.686;9.170;2024-03-02T07:33:48;7.10;99.90
39621;DHT22;25309;48.686;9.170;2024-03-02T07:36:15;7.40;99.90
39621;DHT22;25309;48.686;9.170;2024-03-02T07:38:43;7.70;99.90
39621;DHT22;25309;48.686;9.170;2024-03-02T07:41:11;7.90;99.90
39621;DHT22;25309;48.686;9.170;2024-03-02T07:43:38;8.50;99.90
39621;DHT22;25309;48.686;9.170;2024-03-02T07:46:07;9.00;99.90
39621;DHT22;25309;48.686;9.170;2024-03-02T07:48:34;9.00;99.90
39621;DHT22;25309;48.686;9.170;2024-03-02T07:51:01;8.90;99.90
39621;DHT22;25309;48.686;9.170;2024-03-02T07:53:29;8.90;99.90
39621;DHT22;25309;48.686;9.170;2024-03-02T07:55:56;8.70;99.90
39621;DHT22;25309;48.686;9.170;2024-03-02T07:58:29;8.50;99.90
39621;DHT22;25309;48.686;9.170;2024-03-02T08:00:57;8.40;99.90
39621;DHT22;25309;48.686;9.170;2024-03-02T08:03:26;8.40;99.90
39621;DHT22;25309;48.686;9.170;2024-03-02T08:05:53;8.40;99.90
39621;DHT22;25309;48.686;9.170;2024-03-02T08:08:20;8.50;99.90
39621;DHT22;25309;48.686;9.170;2024-03-02T08:10:47;8.80;99.90
39621;DHT22;25309;48.686;9.170;2024-03-02T08:13:14;9.10;99.90
39621;DHT22;25309;48.686;9.170;2024-03-02T08:15:41;9.50;99.90
39621;DHT22;25309;48.686;9.170;2024-03-02T08:18:08;10.00;99.90
39621;DHT22;25309;48.686;9.170;2024-03-02T08:20:36;10.40;99.90
39621;DHT22;25309;48.686;9.170;2024-03-02T08:23:04;11.30;99.90
39621;DHT22;25309;48.686;9.170;2024-03-02T08:25:31;12.10;99.90
39621;DHT22;25309;48.686;9.170;2024-03-02T08:27:58;12.80;99.90
39621;DHT22;25309;48.686;9.170;2024-03-02T08:30:25;13.00;99.90
39621;DHT22;25309;48.686;9.170;2024-03-02T08:32:52;13.20;99.90
39621;DHT22;25309;48.686;9.170;2024-03-02T08:35:19;14.20;99.90
39621;DHT22;25309;48.686;9.170;2024-03-02T08:37:50;15.60;99.90
39621;DHT22;25309;48.686;9.170;2024-03-02T08:40:17;17.00;99.90
39621;DHT22;25309;48.686;9.170;2024-03-02T08:42:45;17.50;98.20
39621;DHT22;25309;48.686;9.170;2024-03-02T08:45:13;17.50;98.20
39621;DHT22;25309;48.686;9.170;2024-03-02T08:47:40;17.60;97.70
39621;DHT22;25309;48.686;9.170;2024-03-02T08:50:08;18.20;96.80
39621;DHT22;25309;48.686;9.170;2024-03-02T08:52:36;18.90;95.80
39621;DHT22;25309;48.686;9.170;2024-03-02T08:55:05;19.00;94.60
39621;DHT22;25309;48.686;9.170;2024-03-02T08:57:34;19.20;95.00
39621;DHT22;25309;48.686;9.170;2024-03-02T09:00:02;18.90;95.40
39621;DHT22;25309;48.686;9.170;2024-03-02T09:02:30;18.90;95.40
39621;DHT22;25309;48.686;9.170;2024-03-02T09:04:57;19.00;95.00
39621;DHT22;25309;48.686;9.170;2024-03-02T09:07:24;19.30;94.60
39621;DHT22;25309;48.686;9.170;2024-03-02T09:09:51;19.70;93.60
39621;DHT22;25309;48.686;9.170;2024-03-02T09:12:20;19.50;93.80
39621;DHT22;25309;48.686;9.170;2024-03-02T09:14:48;19.10;94.10
39621;DHT22;25309;48.686;9.170;2024-03-02T09:17:15;19.30;94.10
39621;DHT22;25309;48.686;9.170;2024-03-02T09:19:42;19.40;93.40
39621;DHT22;25309;48.686;9.170;2024-03-02T09:22:09;19.40;94.10
39621;DHT22;25309;48.686;9.170;2024-03-02T09:24:36;19.60;93.30
39621;DHT22;25309;48.686;9.170;2024-03-02T09:27:04;20.00;93.20
39621;DHT22;25309;48.686;9.170;2024-03-02T09:29:32;20.40;93.30
39621;DHT22;25309;48.686;9.170;2024-03-02T09:31:59;20.70;92.90
39621;DHT22;25309;48.686;9.170;2024-03-02T09:34:26;20.70;92.10
39621;DHT22;25309;48.686;9.170;2024-03-02T09:36:53;20.60;92.50
39621;DHT22;25309;48.686;9.170;2024-03-02T09:39:20;20.70;91.30
39621;DHT22;25309;48.686;9.170;2024-03-02T09:41:48;20.90;92.10
39621;DHT22;25309;48.686;9.170;2024-03-02T09:44:15;21.50;91.60
39621;DHT22;25309;48.686;9.170;2024-03-02T09:46:44;22.00;89.20
39621;DHT22;25309;48.686;9.170;2024-03-02T09:49:15;22.40;89.60
39621;DHT22;25309;48.686;9.170;2024-03-02T09:51:47;22.90;86.60
39621;DHT22;25309;48.686;9.170;2024-03-02T09:54:15;23.10;87.50
39621;DHT22;25309;48.686;9.170;2024-03-02T09:56:49;23.40;86.30
39621;DHT22;25309;48.686;9.170;2024-03-02T09:59:16;23.50;85.00
39621;DHT22;25309;48.686;9.170;2024-03-02T10:02:00;23.80;82.70
39621;DHT22;25309;48.686;9.170;2024-03-02T10:04:29;23.80;82.50
39621;DHT22;25309;48.686;9.170;2024-03-02T10:07:13;23.60;83.00
39621;DHT22;25309;48.686;9.170;2024-03-02T10:09:41;23.30;84.00
39621;DHT22;25309;48.686;9.170;2024-03-02T10:12:09;23.30;84.30
39621;DHT22;25309;48.686;9.170;2024-03-02T10:14:38;23.50;83.10
39621;DHT22;25309;48.686;9.170;2024-03-02T10:17:07;23.70;82.50
39621;DHT22;25309;48.686;9.170;2024-03-02T10:19:35;23.90;82.80
39621;DHT22;25309;48.686;9.170;2024-03-02T10:22:04;24.10;82.90
39621;DHT22;25309;48.686;9.170;2024-03-02T10:24:36;24.40;80.90
39621;DHT22;25309;48.686;9.170;2024-03-02T10:27:08;24.50;80.40
39621;DHT22;25309;48.686;9.170;2024-03-02T10:29:39;24.70;81.60
39621;DHT22;25309;48.686;9.170;2024-03-02T10:32:12;24.80;79.00
39621;DHT22;25309;48.686;9.170;2024-03-02T10:34:39;24.90;78.10
39621;DHT22;25309;48.686;9.170;2024-03-02T10:37:07;24.90;78.90
39621;DHT22;25309;48.686;9.170;2024-03-02T10:39:35;24.90;78.60
39621;DHT22;25309;48.686;9.170;2024-03-02T10:42:07;24.50;78.80
39621;DHT22;25309;48.686;9.170;2024-03-02T10:44:35;24.50;78.60
39621;DHT22;25309;48.686;9.170;2024-03-02T10:47:03;24.60;78.40
39621;DHT22;25309;48.686;9.170;2024-03-02T10:49:33;24.90;78.70
39621;DHT22;25309;48.686;9.170;2024-03-02T10:52:01;24.90;77.00
39621;DHT22;25309;48.686;9.170;2024-03-02T10:54:28;24.90;75.20
39621;DHT22;25309;48.686;9.170;2024-03-02T10:57:04;24.90;76.30
39621;DHT22;25309;48.686;9.170;2024-03-02T10:59:34;24.70;76.10
39621;DHT22;25309;48.686;9.170;2024-03-02T11:02:03;24.70;76.70
39621;DHT22;25309;48.686;9.170;2024-03-02T11:04:34;24.70;76.70
39621;DHT22;25309;48.686;9.170;2024-03-02T11:07:04;24.80;76.70
39621;DHT22;25309;48.686;9.170;2024-03-02T11:09:34;25.00;74.70
39621;DHT22;25309;48.686;9.170;2024-03-02T11:12:05;24.70;71.00
39621;DHT22;25309;48.686;9.170;2024-03-02T11:14:33;24.30;72.00
39621;DHT22;25309;48.686;9.170;2024-03-02T11:17:03;24.10;74.70
39621;DHT22;25309;48.686;9.170;2024-03-02T11:19:32;23.80;75.70
39621;DHT22;25309;48.686;9.170;2024-03-02T11:22:02;23.80;75.80
39621;DHT22;25309;48.686;9.170;2024-03-02T11:24:31;24.00;76.30
39621;DHT22;25309;48.686;9.170;2024-03-02T11:27:05;24.20;74.60
39621;DHT22;25309;48.686;9.170;2024-03-02T11:29:45;24.60;75.00
39621;DHT22;25309;48.686;9.170;2024-03-02T11:32:15;24.80;75.10
39621;DHT22;25309;48.686;9.170;2024-03-02T11:34:45;24.80;75.10
39621;DHT22;25309;48.686;9.170;2024-03-02T11:37:19;24.70;74.90
39621;DHT22;25309;48.686;9.170;2024-03-02T11:39:50;24.70;73.70
39621;DHT22;25309;48.686;9.170;2024-03-02T11:42:18;24.60;74.80
39621;DHT22;25309;48.686;9.170;2024-03-02T11:44:46;24.60;75.10
39621;DHT22;25309;48.686;9.170;2024-03-02T11:47:14;24.10;74.10
39621;DHT22;25309;48.686;9.170;2024-03-02T11:49:44;23.90;75.30
39621;DHT22;25309;48.686;9.170;2024-03-02T11:52:15;23.60;74.90
39621;DHT22;25309;48.686;9.170;2024-03-02T11:54:45;23.40;75.60
39621;DHT22;25309;48.686;9.170;2024-03-02T11:57:14;23.20;76.90
39621;DHT22;25309;48.686;9.170;2024-03-02T11:59:42;23.10;76.80
39621;DHT22;25309;48.686;9.170;2024-03-02T12:02:15;22.80;78.10
39621;DHT22;25309;48.686;9.170;2024-03-02T12:04:45;22.60;78.40
39621;DHT22;25309;48.686;9.170;2024-03-02T12:07:18;22.80;78.60
39621;DHT22;25309;48.686;9.170;2024-03-02T12:09:45;22.90;77.70
39621;DHT22;25309;48.686;9.170;2024-03-02T12:12:13;23.00;77.70
39621;DHT22;25309;48.686;9.170;2024-03-02T12:14:50;23.10;77.20
39621;DHT22;25309;48.686;9.170;2024-03-02T12:17:19;23.20;77.30
39621;DHT22;25309;48.686;9.170;2024-03-02T12:19:47;23.40;76.40
39621;DHT22;25309;48.686;9.170;2024-03-02T12:22:14;23.50;77.20
39621;DHT22;25309;48.686;9.170;2024-03-02T12:24:43;23.60;75.60
39621;DHT22;25309;48.686;9.170;2024-03-02T12:27:15;24.10;76.80
39621;DHT22;25309;48.686;9.170;2024-03-02T12:29:43;24.20;75.00
39621;DHT22;25309;48.686;9.170;2024-03-02T12:32:10;24.40;74.70
39621;DHT22;25309;48.686;9.170;2024-03-02T12:34:38;24.60;75.90
39621;DHT22;25309;48.686;9.170;2024-03-02T12:37:07;24.70;75.10
39621;DHT22;25309;48.686;9.170;2024-03-02T12:39:34;24.70;72.50
39621;DHT22;25309;48.686;9.170;2024-03-02T12:42:02;24.60;73.30
39621;DHT22;25309;48.686;9.170;2024-03-02T12:44:30;24.30;73.60
39621;DHT22;25309;48.686;9.170;2024-03-02T12:46:57;24.50;73.80
39621;DHT22;25309;48.686;9.170;2024-03-02T12:49:27;24.60;74.40
39621;DHT22;25309;48.686;9.170;2024-03-02T12:51:55;24.60;73.30
39621;DHT22;25309;48.686;9.170;2024-03-02T12:54:25;24.30;73.50
39621;DHT22;25309;48.686;9.170;2024-03-02T12:56:54;24.30;74.40
39621;DHT22;25309;48.686;9.170;2024-03-02T12:59:24;24.40;72.00
39621;DHT22;25309;48.686;9.170;2024-03-02T13:01:53;24.30;72.30
39621;DHT22;25309;48.686;9.170;2024-03-02T13:04:24;24.30;72.40
39621;DHT22;25309;48.686;9.170;2024-03-02T13:06:52;24.40;72.70
39621;DHT22;25309;48.686;9.170;2024-03-02T13:09:20;24.50;72.90
39621;DHT22;25309;48.686;9.170;2024-03-02T13:11:49;24.50;73.70
39621;DHT22;25309;48.686;9.170;2024-03-02T13:14:16;24.60;71.20
39621;DHT22;25309;48.686;9.170;2024-03-02T13:16:45;24.30;72.00
39621;DHT22;25309;48.686;9.170;2024-03-02T13:19:14;24.50;72.00
39621;DHT22;25309;48.686;9.170;2024-03-02T13:21:41;24.90;70.50
39621;DHT22;25309;48.686;9.170;2024-03-02T13:24:09;24.80;70.60
39621;DHT22;25309;48.686;9.170;2024-03-02T13:26:36;24.50;72.00
39621;DHT22;25309;48.686;9.170;2024-03-02T13:29:05;24.30;70.60
39621;DHT22;25309;48.686;9.170;2024-03-02T13:31:32;24.10;73.00
39621;DHT22;25309;48.686;9.170;2024-03-02T13:33:59;24.30;71.40
39621;DHT22;25309;48.686;9.170;2024-03-02T13:36:26;24.10;70.30
39621;DHT22;25309;48.686;9.170;2024-03-02T13:38:53;23.40;70.20
39621;DHT22;25309;48.686;9.170;2024-03-02T13:41:20;23.00;71.30
39621;DHT22;25309;48.686;9.170;2024-03-02T13:43:47;22.70;72.30
39621;DHT22;25309;48.686;9.170;2024-03-02T13:46:18;22.90;72.30
39621;DHT22;25309;48.686;9.170;2024-03-02T13:48:45;22.90;73.70
39621;DHT22;25309;48.686;9.170;2024-03-02T13:51:12;23.10;73.70
39621;DHT22;25309;48.686;9.170;2024-03-02T13:53:39;23.10;71.70
39621;DHT22;25309;48.686;9.170;2024-03-02T13:56:06;22.80;71.80
39621;DHT22;25309;48.686;9.170;2024-03-02T13:58:34;22.40;72.60
39621;DHT22;25309;48.686;9.170;2024-03-02T14:01:01;22.30;73.10
39621;DHT22;25309;48.686;9.170;2024-03-02T14:03:32;22.20;73.10
39621;DHT22;25309;48.686;9.170;2024-03-02T14:06:00;22.20;73.30
39621;DHT22;25309;48.686;9.170;2024-03-02T14:08:27;22.20;73.30
39621;DHT22;25309;48.686;9.170;2024-03-02T14:10:54;21.90;73.50
39621;DHT22;25309;48.686;9.170;2024-03-02T14:13:22;22.00;75.00
39621;DHT22;25309;48.686;9.170;2024-03-02T14:15:49;22.10;74.00
39621;DHT22;25309;48.686;9.170;2024-03-02T14:18:16;21.90;73.90
39621;DHT22;25309;48.686;9.170;2024-03-02T14:20:45;21.60;74.70
39621;DHT22;25309;48.686;9.170;2024-03-02T14:23:13;21.60;75.10
39621;DHT22;25309;48.686;9.170;2024-03-02T14:25:40;21.70;74.80
39621;DHT22;25309;48.686;9.170;2024-03-02T14:28:07;21.70;74.90
39621;DHT22;25309;48.686;9.170;2024-03-02T14:30:54;21.70;74.60
39621;DHT22;25309;48.686;9.170;2024-03-02T14:33:21;21.90;73.40
39621;DHT22;25309;48.686;9.170;2024-03-02T14:35:50;21.60;73.60
39621;DHT22;25309;48.686;9.170;2024-03-02T14:38:17;21.50;74.00
39621;DHT22;25309;48.686;9.170;2024-03-02T14:40:44;21.50;74.00
39621;DHT22;25309;48.686;9.170;2024-03-02T14:43:11;21.20;74.30
39621;DHT22;25309;48.686;9.170;2024-03-02T14:45:38;20.50;75.00
39621;DHT22;25309;48.686;9.170;2024-03-02T14:48:06;20.20;75.60
39621;DHT22;25309;48.686;9.170;2024-03-02T14:50:33;19.90;77.00
39621;DHT22;25309;48.686;9.170;2024-03-02T14:53:01;19.90;77.10
39621;DHT22;25309;48.686;9.170;2024-03-02T14:55:29;19.70;76.30
39621;DHT22;25309;48.686;9.170;2024-03-02T14:57:55;19.80;78.00
39621;DHT22;25309;48.686;9.170;2024-03-02T15:00:22;19.60;76.90
39621;DHT22;25309;48.686;9.170;2024-03-02T15:02:50;19.60;78.30
39621;DHT22;25309;48.686;9.170;2024-03-02T15:05:17;19.80;76.50
39621;DHT22;25309;48.686;9.170;2024-03-02T15:07:44;19.70;75.90
39621;DHT22;25309;48.686;9.170;2024-03-02T15:10:13;19.50;76.00
39621;DHT22;25309;48.686;9.170;2024-03-02T15:12:40;19.30;76.90
39621;DHT22;25309;48.686;9.170;2024-03-02T15:15:07;19.30;77.40
39621;DHT22;25309;48.686;9.170;2024-03-02T15:17:37;19.20;76.40
39621;DHT22;25309;48.686;9.170;2024-03-02T15:20:05;18.70;77.30
39621;DHT22;25309;48.686;9.170;2024-03-02T15:22:34;18.30;77.30
39621;DHT22;25309;48.686;9.170;2024-03-02T15:25:01;17.90;80.00
39621;DHT22;25309;48.686;9.170;2024-03-02T15:27:29;17.80;80.80
39621;DHT22;25309;48.686;9.170;2024-03-02T15:29:56;17.60;81.30
39621;DHT22;25309;48.686;9.170;2024-03-02T15:32:24;17.50;80.90
39621;DHT22;25309;48.686;9.170;2024-03-02T15:34:53;17.30;80.00
39621;DHT22;25309;48.686;9.170;2024-03-02T15:37:20;17.10;81.20
39621;DHT22;25309;48.686;9.170;2024-03-02T15:39:47;16.90;81.60
39621;DHT22;25309;48.686;9.170;2024-03-02T15:42:15;16.70;83.50
39621;DHT22;25309;48.686;9.170;2024-03-02T15:44:43;16.50;83.10
39621;DHT22;25309;48.686;9.170;2024-03-02T15:47:11;16.30;84.30